createdAt,value
2023-12-11T00:00:55.197Z,91.86
2023-12-11T00:03:39.918Z,91.84
2023-12-11T00:06:08.454Z,91.86
2023-12-11T00:08:37.040Z,91.86
2023-12-11T00:11:04.827Z,91.86
2023-12-11T00:13:32.579Z,91.87
2023-12-11T00:16:00.276Z,91.88
2023-12-11T00:18:28.664Z,91.90
2023-12-11T00:20:56.535Z,91.92
2023-12-11T00:23:24.396Z,91.92
2023-12-11T00:25:52.085Z,91.92
2023-12-11T00:28:19.892Z,91.93
2023-12-11T00:30:47.776Z,91.92
2023-12-11T00:33:15.619Z,91.94
2023-12-11T00:35:44.725Z,91.93
2023-12-11T00:38:12.468Z,91.95
2023-12-11T00:40:40.220Z,91.95
2023-12-11T00:43:08.197Z,91.95
2023-12-11T00:45:36.109Z,91.95
2023-12-11T00:48:03.993Z,91.94
2023-12-11T00:50:31.737Z,91.93
2023-12-11T00:52:59.425Z,91.93
2023-12-11T00:55:27.159Z,91.94
2023-12-11T00:57:54.886Z,91.93
2023-12-11T01:00:22.722Z,91.94
2023-12-11T01:02:50.346Z,91.95
2023-12-11T01:05:18.120Z,91.96
2023-12-11T01:07:45.974Z,91.95
2023-12-11T01:10:13.684Z,91.95
2023-12-11T01:12:43.973Z,91.95
2023-12-11T01:15:12.280Z,91.94
2023-12-11T01:17:41.126Z,91.95
2023-12-11T01:20:10.497Z,91.96
2023-12-11T01:22:38.332Z,91.95
2023-12-11T01:25:06.567Z,91.97
2023-12-11T01:27:35.068Z,91.98
2023-12-11T01:30:03.335Z,92.05
2023-12-11T01:32:31.189Z,92.09
2023-12-11T01:34:59.144Z,92.11
2023-12-11T01:37:27.006Z,92.14
2023-12-11T01:39:54.811Z,92.13
2023-12-11T01:42:22.554Z,92.12
2023-12-11T01:44:50.358Z,92.12
2023-12-11T01:47:18.597Z,92.11
2023-12-11T01:49:46.533Z,92.12
2023-12-11T01:52:15.183Z,92.11
2023-12-11T01:54:43.193Z,92.10
2023-12-11T01:57:11.040Z,92.11
2023-12-11T01:59:39.996Z,92.10
2023-12-11T02:02:07.845Z,92.10
2023-12-11T02:04:38.923Z,92.10
2023-12-11T02:07:06.935Z,92.10
2023-12-11T02:09:35.187Z,92.12
2023-12-11T02:12:03.787Z,92.12
2023-12-11T02:14:31.557Z,92.12
2023-12-11T02:16:59.704Z,92.13
2023-12-11T02:19:27.497Z,92.13
2023-12-11T02:21:55.625Z,92.12
2023-12-11T02:24:26.758Z,92.10
2023-12-11T02:26:54.856Z,92.08
2023-12-11T02:29:22.732Z,92.05
2023-12-11T02:31:50.570Z,92.03
2023-12-11T02:34:18.424Z,92.03
2023-12-11T02:36:46.327Z,92.01
2023-12-11T02:39:14.068Z,91.99
2023-12-11T02:41:41.788Z,91.95
2023-12-11T02:44:09.694Z,91.92
2023-12-11T02:46:40.339Z,91.90
2023-12-11T02:49:08.226Z,91.87
2023-12-11T02:51:36.257Z,91.87
2023-12-11T02:54:04.101Z,91.88
2023-12-11T02:56:31.830Z,91.87
2023-12-11T02:58:59.713Z,91.86
2023-12-11T03:01:27.553Z,91.87
2023-12-11T03:03:55.392Z,91.86
2023-12-11T03:06:23.320Z,91.87
2023-12-11T03:08:51.276Z,91.86
2023-12-11T03:11:18.973Z,91.82
2023-12-11T03:13:46.752Z,91.82
2023-12-11T03:16:15.203Z,91.80
2023-12-11T03:18:45.114Z,91.78
2023-12-11T03:21:13.043Z,91.77
2023-12-11T03:23:40.781Z,91.77
2023-12-11T03:26:08.541Z,91.78
2023-12-11T03:28:36.381Z,91.81
2023-12-11T03:31:04.386Z,91.87
2023-12-11T03:33:32.245Z,91.89
2023-12-11T03:36:00.120Z,91.89
2023-12-11T03:38:27.923Z,91.90
2023-12-11T03:40:56.044Z,91.89
2023-12-11T03:43:24.290Z,91.88
2023-12-11T03:45:55.872Z,91.88
2023-12-11T03:48:23.726Z,91.88
2023-12-11T03:50:51.542Z,91.85
2023-12-11T03:53:19.262Z,91.83
2023-12-11T03:55:46.976Z,91.80
2023-12-11T03:58:14.732Z,91.81
2023-12-11T04:00:42.588Z,91.81
2023-12-11T04:03:11.069Z,91.83
2023-12-11T04:05:38.881Z,91.85
2023-12-11T04:08:06.724Z,91.88
2023-12-11T04:10:34.428Z,91.89
2023-12-11T04:13:03.978Z,91.88
2023-12-11T04:15:32.331Z,91.87
2023-12-11T04:18:00.323Z,91.87
2023-12-11T04:20:28.232Z,91.88
2023-12-11T04:22:55.930Z,91.94
2023-12-11T04:25:23.668Z,91.92
2023-12-11T04:27:51.394Z,91.92
2023-12-11T04:30:19.196Z,91.93
2023-12-11T04:32:47.212Z,91.93
2023-12-11T04:35:17.364Z,91.92
2023-12-11T04:37:45.042Z,91.87
2023-12-11T04:40:13.188Z,91.83
2023-12-11T04:42:41.066Z,91.83
2023-12-11T04:45:09.458Z,91.84
2023-12-11T04:47:37.270Z,91.84
2023-12-11T04:50:05.896Z,91.86
2023-12-11T04:52:33.666Z,91.85
2023-12-11T04:55:01.424Z,91.83
2023-12-11T04:57:29.491Z,91.85
2023-12-11T04:59:57.302Z,91.88
2023-12-11T05:02:24.983Z,91.90
2023-12-11T05:04:52.777Z,91.91
2023-12-11T05:07:20.629Z,91.91
2023-12-11T05:09:48.442Z,91.89
2023-12-11T05:12:17.097Z,91.84
2023-12-11T05:14:44.983Z,91.83
2023-12-11T05:17:12.777Z,91.81
2023-12-11T05:19:40.630Z,91.79
2023-12-11T05:22:08.712Z,91.73
2023-12-11T05:24:36.532Z,91.69
2023-12-11T05:27:04.545Z,91.68
2023-12-11T05:29:32.248Z,91.70
2023-12-11T05:32:00.130Z,91.77
2023-12-11T05:34:27.934Z,91.85
2023-12-11T05:36:55.925Z,91.90
2023-12-11T05:39:23.701Z,91.91
2023-12-11T05:41:51.463Z,91.91
2023-12-11T05:44:19.573Z,91.89
2023-12-11T05:46:48.257Z,91.84
2023-12-11T05:49:16.047Z,91.78
2023-12-11T05:51:43.853Z,91.75
2023-12-11T05:54:11.775Z,91.71
2023-12-11T05:56:39.628Z,91.71
2023-12-11T05:59:07.449Z,91.69
2023-12-11T06:01:35.201Z,91.69
2023-12-11T06:04:05.087Z,91.71
2023-12-11T06:06:32.889Z,91.71
2023-12-11T06:09:00.812Z,91.72
2023-12-11T06:11:28.521Z,91.74
2023-12-11T06:13:56.442Z,91.76
2023-12-11T06:16:24.193Z,91.78
2023-12-11T06:18:52.059Z,91.78
2023-12-11T06:21:23.020Z,91.80
2023-12-11T06:23:51.014Z,91.81
2023-12-11T06:26:45.330Z,91.81
2023-12-11T06:29:13.434Z,91.81
2023-12-11T06:31:41.169Z,91.83
2023-12-11T06:34:08.976Z,91.86
2023-12-11T06:36:36.881Z,91.87
2023-12-11T06:39:04.901Z,91.91
2023-12-11T06:41:32.628Z,91.91
2023-12-11T06:44:00.323Z,91.94
2023-12-11T06:46:31.238Z,91.94
2023-12-11T06:48:59.771Z,91.95
2023-12-11T06:51:28.475Z,91.97
2023-12-11T06:54:00.096Z,91.95
2023-12-11T06:56:32.419Z,91.96
2023-12-11T06:59:00.669Z,91.98
2023-12-11T07:01:30.221Z,91.97
2023-12-11T07:03:58.811Z,91.95
2023-12-11T07:06:27.108Z,92.00
2023-12-11T07:08:55.326Z,91.99
2023-12-11T07:11:23.117Z,92.04
2023-12-11T07:13:51.461Z,92.06
2023-12-11T07:16:19.296Z,92.06
2023-12-11T07:18:47.876Z,92.05
2023-12-11T07:21:15.757Z,92.06
2023-12-11T07:23:43.754Z,92.09
2023-12-11T07:26:11.614Z,92.11
2023-12-11T07:28:40.261Z,92.13
2023-12-11T07:31:08.203Z,92.11
2023-12-11T07:33:36.111Z,92.07
2023-12-11T07:36:05.930Z,92.04
2023-12-11T07:38:34.055Z,92.04
2023-12-11T07:41:03.615Z,91.99
2023-12-11T07:43:33.119Z,92.02
2023-12-11T07:46:01.663Z,92.00
2023-12-11T07:48:30.491Z,91.95
2023-12-11T07:51:00.727Z,91.97
2023-12-11T07:53:28.552Z,92.02
2023-12-11T07:55:56.280Z,92.01
2023-12-11T07:58:24.080Z,91.99
2023-12-11T08:00:52.646Z,92.00
2023-12-11T08:03:20.485Z,91.96
2023-12-11T08:05:48.775Z,91.94
2023-12-11T08:08:16.572Z,91.96
2023-12-11T08:10:44.323Z,91.94
2023-12-11T08:13:12.141Z,91.94
2023-12-11T08:15:40.035Z,91.98
2023-12-11T08:18:07.876Z,92.02
2023-12-11T08:20:35.729Z,92.07
2023-12-11T08:23:03.572Z,92.10
2023-12-11T08:25:31.286Z,92.11
2023-12-11T08:27:59.148Z,92.10
2023-12-11T08:30:26.941Z,92.04
2023-12-11T08:32:54.669Z,92.02
2023-12-11T08:35:24.689Z,91.96
2023-12-11T08:37:52.408Z,91.93
2023-12-11T08:40:21.898Z,91.88
2023-12-11T08:42:49.705Z,91.87
2023-12-11T08:45:17.570Z,91.81
2023-12-11T08:47:45.715Z,91.78
2023-12-11T08:50:13.663Z,91.77
2023-12-11T08:52:43.468Z,91.71
2023-12-11T08:55:11.428Z,91.67
2023-12-11T08:57:39.315Z,91.61
2023-12-11T09:00:08.163Z,91.55
2023-12-11T09:02:36.017Z,91.55
2023-12-11T09:05:04.632Z,91.54
2023-12-11T09:07:32.838Z,91.52
2023-12-11T09:10:00.958Z,91.41
2023-12-11T09:12:33.338Z,91.34
2023-12-11T09:15:04.019Z,91.30
2023-12-11T09:17:33.145Z,91.29
2023-12-11T09:20:04.662Z,91.30
2023-12-11T09:22:32.965Z,91.32
2023-12-11T09:25:00.887Z,91.34
2023-12-11T09:27:29.215Z,91.37
2023-12-11T09:29:57.158Z,91.42
2023-12-11T09:32:26.468Z,91.51
2023-12-11T09:34:54.433Z,91.58
2023-12-11T09:37:22.877Z,91.69
2023-12-11T09:39:50.767Z,91.76
2023-12-11T09:42:19.373Z,91.77
2023-12-11T09:44:48.823Z,91.78
2023-12-11T09:47:30.447Z,91.81
2023-12-11T09:49:58.978Z,91.80
2023-12-11T09:52:28.768Z,91.81
2023-12-11T09:54:56.696Z,91.78
2023-12-11T09:57:26.678Z,91.72
2023-12-11T09:59:54.509Z,91.70
2023-12-11T10:02:27.036Z,91.70
2023-12-11T10:05:06.487Z,91.73
2023-12-11T10:07:35.838Z,91.77
2023-12-11T10:10:33.123Z,91.82
2023-12-11T10:13:05.369Z,91.76
2023-12-11T10:15:35.111Z,91.74
2023-12-11T10:18:13.876Z,91.73
2023-12-11T10:20:44.069Z,91.81
2023-12-11T10:23:20.166Z,91.95
2023-12-11T10:25:50.291Z,92.09
2023-12-11T10:28:24.725Z,92.09
2023-12-11T10:31:02.969Z,92.11
2023-12-11T10:33:35.046Z,92.11
2023-12-11T10:36:14.925Z,92.08
2023-12-11T10:38:43.999Z,92.04
2023-12-11T10:41:27.567Z,91.99
2023-12-11T10:44:08.019Z,91.86
2023-12-11T10:46:43.426Z,91.72
2023-12-11T10:49:11.648Z,91.64
2023-12-11T10:51:40.346Z,91.58
2023-12-11T10:54:08.091Z,91.46
2023-12-11T10:56:36.573Z,91.41
2023-12-11T10:59:04.330Z,91.40
2023-12-11T11:01:32.497Z,91.43
2023-12-11T11:04:00.410Z,91.42
2023-12-11T11:06:30.575Z,91.42
2023-12-11T11:09:08.766Z,91.47
2023-12-11T11:11:42.729Z,91.46
2023-12-11T11:14:46.704Z,91.36
2023-12-11T11:17:15.465Z,91.23
2023-12-11T11:20:14.199Z,91.08
2023-12-11T11:22:42.230Z,90.96
2023-12-11T11:25:29.735Z,90.85
2023-12-11T11:27:58.354Z,90.78
2023-12-11T11:30:47.484Z,90.81
2023-12-11T11:33:15.963Z,90.82
2023-12-11T11:35:47.236Z,90.85
2023-12-11T11:38:16.830Z,90.85
2023-12-11T11:40:45.370Z,90.85
2023-12-11T11:43:16.892Z,90.80
2023-12-11T11:45:44.950Z,90.74
2023-12-11T11:48:13.116Z,90.65
2023-12-11T11:50:55.073Z,90.43
2023-12-11T11:53:23.445Z,90.24
2023-12-11T11:55:52.070Z,90.12
2023-12-11T11:58:20.184Z,90.09
2023-12-11T12:00:48.097Z,90.09
2023-12-11T12:03:16.343Z,90.05
2023-12-11T12:05:56.964Z,90.07
2023-12-11T12:08:26.134Z,90.11
2023-12-11T12:10:58.245Z,90.18
2023-12-11T12:13:28.634Z,90.22
2023-12-11T12:15:56.640Z,90.23
2023-12-11T12:18:24.669Z,90.22
2023-12-11T12:21:05.838Z,90.19
2023-12-11T12:23:33.785Z,90.12
2023-12-11T12:26:04.043Z,90.08
2023-12-11T12:28:32.292Z,90.05
2023-12-11T12:31:00.301Z,90.00
2023-12-11T12:33:28.553Z,89.96
2023-12-11T12:35:56.716Z,89.91
2023-12-11T12:38:24.743Z,89.89
2023-12-11T12:40:56.167Z,89.92
2023-12-11T12:43:25.594Z,89.96
2023-12-11T12:46:00.687Z,89.95
2023-12-11T12:48:29.906Z,89.94
2023-12-11T12:51:12.287Z,89.93
2023-12-11T12:53:50.571Z,89.93
2023-12-11T12:56:20.023Z,89.95
2023-12-11T12:58:51.539Z,89.96
2023-12-11T13:01:19.358Z,89.97
2023-12-11T13:03:47.331Z,89.91
2023-12-11T13:06:26.564Z,89.79
2023-12-11T13:08:54.432Z,89.78
2023-12-11T13:11:22.453Z,89.79
2023-12-11T13:13:57.657Z,89.81
2023-12-11T13:16:25.669Z,89.81
2023-12-11T13:18:53.629Z,89.78
2023-12-11T13:21:21.514Z,89.72
2023-12-11T13:23:49.262Z,89.68
2023-12-11T13:26:17.200Z,89.67
2023-12-11T13:28:44.928Z,89.66
2023-12-11T13:31:12.813Z,89.66
2023-12-11T13:33:40.736Z,89.68
2023-12-11T13:36:09.243Z,89.71
2023-12-11T13:38:37.049Z,89.74
2023-12-11T13:41:05.525Z,89.77
2023-12-11T13:43:33.437Z,89.77
2023-12-11T13:46:01.268Z,89.74
2023-12-11T13:48:32.112Z,89.75
2023-12-11T13:51:01.241Z,89.78
2023-12-11T13:53:29.165Z,89.81
2023-12-11T13:55:57.249Z,89.85
2023-12-11T13:58:25.268Z,89.83
2023-12-11T14:00:53.305Z,89.80
2023-12-11T14:03:21.956Z,89.78
2023-12-11T14:05:50.785Z,89.76
2023-12-11T14:08:19.076Z,89.75
2023-12-11T14:10:47.123Z,89.75
2023-12-11T14:13:15.753Z,89.74
2023-12-11T14:15:46.822Z,89.74
2023-12-11T14:18:15.388Z,89.72
2023-12-11T14:20:43.671Z,89.72
2023-12-11T14:23:13.732Z,89.73
2023-12-11T14:25:41.726Z,89.75
2023-12-11T14:28:10.240Z,89.75
2023-12-11T14:30:39.224Z,89.76
2023-12-11T14:33:08.718Z,89.76
2023-12-11T14:35:37.562Z,89.82
2023-12-11T14:38:05.801Z,89.88
2023-12-11T14:40:34.065Z,89.94
2023-12-11T14:43:03.495Z,89.98
2023-12-11T14:45:34.049Z,89.99
2023-12-11T14:48:02.012Z,90.00
2023-12-11T14:50:29.814Z,90.00
2023-12-11T14:52:57.516Z,89.98
2023-12-11T14:55:26.312Z,89.97
2023-12-11T14:57:54.586Z,89.93
2023-12-11T15:00:22.959Z,89.88
2023-12-11T15:02:50.767Z,89.83
2023-12-11T15:05:18.811Z,89.78
2023-12-11T15:07:48.128Z,89.68
2023-12-11T15:10:16.100Z,89.63
2023-12-11T15:12:43.885Z,89.65
2023-12-11T15:15:12.375Z,89.69
2023-12-11T15:17:40.154Z,89.69
2023-12-11T15:20:11.501Z,89.67
2023-12-11T15:22:39.649Z,89.57
2023-12-11T15:25:10.931Z,89.48
2023-12-11T15:27:38.887Z,89.41
2023-12-11T15:30:09.314Z,89.34
2023-12-11T15:32:37.340Z,89.27
2023-12-11T15:35:06.247Z,89.19
2023-12-11T15:37:34.359Z,89.11
2023-12-11T15:40:02.543Z,89.01
2023-12-11T15:42:30.671Z,88.97
2023-12-11T15:44:58.776Z,88.98
2023-12-11T15:47:26.829Z,88.95
2023-12-11T15:49:54.658Z,88.93
2023-12-11T15:52:24.720Z,88.90
2023-12-11T15:54:54.327Z,88.84
2023-12-11T15:57:22.044Z,88.81
2023-12-11T15:59:50.195Z,88.79
2023-12-11T16:02:18.310Z,88.70
2023-12-11T16:04:46.268Z,88.59
2023-12-11T16:07:14.365Z,88.54
2023-12-11T16:09:42.242Z,88.47
2023-12-11T16:12:10.014Z,88.41
2023-12-11T16:14:40.019Z,88.39
2023-12-11T16:17:07.865Z,88.39
2023-12-11T16:19:52.827Z,88.39
2023-12-11T16:22:22.079Z,88.39
2023-12-11T16:24:51.821Z,88.40
2023-12-11T16:27:20.119Z,88.45
2023-12-11T16:29:47.850Z,88.48
2023-12-11T16:32:15.599Z,88.54
2023-12-11T16:34:43.495Z,88.66
2023-12-11T16:37:11.522Z,88.87
2023-12-11T16:39:43.354Z,88.95
2023-12-11T16:42:11.573Z,88.94
2023-12-11T16:44:39.593Z,88.86
2023-12-11T16:47:08.569Z,88.72
2023-12-11T16:49:44.913Z,88.54
2023-12-11T16:52:20.652Z,88.42
2023-12-11T16:54:48.493Z,88.38
2023-12-11T16:57:16.829Z,88.38
2023-12-11T16:59:45.549Z,88.38
2023-12-11T17:02:13.447Z,88.39
2023-12-11T17:04:41.598Z,88.36
2023-12-11T17:07:09.466Z,88.37
2023-12-11T17:09:38.687Z,88.35
2023-12-11T17:12:06.936Z,88.37
2023-12-11T17:14:34.730Z,88.37
2023-12-11T17:17:03.940Z,88.39
2023-12-11T17:19:31.826Z,88.53
2023-12-11T17:22:00.063Z,88.60
2023-12-11T17:24:28.144Z,88.50
2023-12-11T17:26:55.872Z,88.34
2023-12-11T17:29:23.586Z,88.23
2023-12-11T17:31:51.399Z,88.18
2023-12-11T17:34:19.549Z,88.15
2023-12-11T17:36:47.382Z,88.10
2023-12-11T17:39:15.163Z,88.08
2023-12-11T17:41:43.161Z,88.03
2023-12-11T17:44:10.962Z,87.95
2023-12-11T17:46:39.025Z,87.95
2023-12-11T17:49:06.813Z,87.97
2023-12-11T17:51:35.072Z,88.00
2023-12-11T17:54:02.957Z,88.01
2023-12-11T17:56:30.758Z,88.05
2023-12-11T17:58:58.603Z,88.13
2023-12-11T18:01:26.352Z,88.21
2023-12-11T18:03:54.186Z,88.30
2023-12-11T18:06:22.028Z,88.39
2023-12-11T18:08:49.798Z,88.46
2023-12-11T18:11:17.525Z,88.49
2023-12-11T18:13:46.053Z,88.46
2023-12-11T18:16:15.086Z,88.32
2023-12-11T18:18:43.112Z,88.26
2023-12-11T18:21:12.026Z,88.20
2023-12-11T18:23:39.830Z,88.07
2023-12-11T18:26:11.826Z,87.91
2023-12-11T18:28:40.026Z,87.84
2023-12-11T18:31:08.122Z,87.78
2023-12-11T18:33:36.068Z,87.71
2023-12-11T18:36:04.338Z,87.72
2023-12-11T18:38:32.023Z,87.78
2023-12-11T18:40:59.789Z,87.85
2023-12-11T18:43:27.526Z,87.91
2023-12-11T18:45:55.855Z,87.99
2023-12-11T18:48:25.114Z,88.11
2023-12-11T18:50:52.984Z,88.26
2023-12-11T18:53:22.145Z,88.39
2023-12-11T18:55:59.889Z,88.49
2023-12-11T18:58:29.387Z,88.61
2023-12-11T19:00:57.608Z,88.73
2023-12-11T19:03:25.912Z,88.85
2023-12-11T19:05:53.773Z,88.96
2023-12-11T19:08:22.260Z,89.04
2023-12-11T19:10:50.003Z,89.10
2023-12-11T19:13:17.878Z,89.19
2023-12-11T19:15:45.749Z,89.28
2023-12-11T19:18:16.596Z,89.36
2023-12-11T19:20:44.664Z,89.42
2023-12-11T19:23:12.358Z,89.51
2023-12-11T19:25:40.231Z,89.61
2023-12-11T19:28:07.919Z,89.71
2023-12-11T19:30:35.717Z,89.74
2023-12-11T19:33:06.306Z,89.80
2023-12-11T19:35:34.749Z,89.84
2023-12-11T19:38:02.478Z,89.91
2023-12-11T19:40:30.510Z,89.98
2023-12-11T19:42:58.334Z,90.02
2023-12-11T19:45:26.637Z,90.07
2023-12-11T19:47:54.445Z,90.12
2023-12-11T19:50:22.494Z,90.19
2023-12-11T19:52:51.719Z,90.26
2023-12-11T19:55:20.402Z,90.35
2023-12-11T19:57:48.347Z,90.44
2023-12-11T20:00:17.178Z,90.52
2023-12-11T20:02:46.793Z,90.55
2023-12-11T20:05:14.662Z,90.62
2023-12-11T20:07:42.442Z,90.68
2023-12-11T20:10:12.169Z,90.78
2023-12-11T20:12:40.115Z,90.87
2023-12-11T20:15:12.042Z,90.89
2023-12-11T20:17:40.297Z,90.91
2023-12-11T20:20:09.693Z,90.91
2023-12-11T20:22:37.568Z,90.89
2023-12-11T20:25:05.843Z,90.88
2023-12-11T20:27:34.884Z,90.94
2023-12-11T20:30:03.668Z,91.01
2023-12-11T20:32:33.771Z,91.10
2023-12-11T20:35:02.555Z,91.15
2023-12-11T20:37:30.731Z,91.24
2023-12-11T20:39:58.607Z,91.25
2023-12-11T20:42:26.481Z,91.28
2023-12-11T20:44:54.761Z,91.26
2023-12-11T20:47:22.581Z,91.21
2023-12-11T20:49:50.296Z,91.18
2023-12-11T20:52:18.070Z,91.14
2023-12-11T20:54:45.853Z,91.06
2023-12-11T20:57:13.710Z,91.03
2023-12-11T20:59:42.262Z,90.98
2023-12-11T21:02:10.139Z,90.95
2023-12-11T21:04:38.014Z,90.94
2023-12-11T21:07:06.270Z,90.93
2023-12-11T21:09:34.192Z,90.93
2023-12-11T21:12:02.080Z,90.93
2023-12-11T21:14:29.839Z,90.94
2023-12-11T21:16:57.527Z,90.94
2023-12-11T21:19:25.420Z,90.93
2023-12-11T21:21:53.335Z,90.90
2023-12-11T21:24:21.047Z,90.88
2023-12-11T21:26:48.877Z,90.86
2023-12-11T21:29:16.945Z,90.87
2023-12-11T21:31:44.782Z,90.89
2023-12-11T21:34:12.612Z,90.86
2023-12-11T21:36:40.723Z,90.84
2023-12-11T21:39:08.714Z,90.84
2023-12-11T21:41:36.547Z,90.84
2023-12-11T21:44:04.906Z,90.84
2023-12-11T21:46:32.786Z,90.83
2023-12-11T21:49:02.555Z,90.82
2023-12-11T21:51:33.614Z,90.81
2023-12-11T21:54:02.354Z,90.78
2023-12-11T21:56:30.907Z,90.77
2023-12-11T21:58:58.614Z,90.75
2023-12-11T22:01:32.163Z,90.71
2023-12-11T22:04:00.720Z,90.71
2023-12-11T22:06:28.582Z,90.72
2023-12-11T22:08:56.432Z,90.73
2023-12-11T22:11:24.370Z,90.70
2023-12-11T22:13:52.101Z,90.65
2023-12-11T22:16:19.996Z,90.58
2023-12-11T22:18:49.044Z,90.51
2023-12-11T22:21:24.224Z,90.47
2023-12-11T22:23:53.964Z,90.46
2023-12-11T22:26:22.770Z,90.45
2023-12-11T22:28:50.536Z,90.43
2023-12-11T22:31:30.090Z,90.44
2023-12-11T22:33:58.052Z,90.48
2023-12-11T22:36:26.098Z,90.56
2023-12-11T22:38:53.831Z,90.64
2023-12-11T22:41:31.064Z,90.69
2023-12-11T22:43:59.314Z,90.69
2023-12-11T22:46:28.026Z,90.64
2023-12-11T22:48:57.612Z,90.59
2023-12-11T22:51:25.586Z,90.54
2023-12-11T22:53:53.417Z,90.51
2023-12-11T22:56:21.210Z,90.50
2023-12-11T22:58:49.209Z,90.49
2023-12-11T23:01:17.194Z,90.47
2023-12-11T23:03:45.551Z,90.47
2023-12-11T23:06:14.117Z,90.51
2023-12-11T23:12:37.509Z,90.59
2023-12-11T23:16:06.747Z,90.64
2023-12-11T23:19:35.649Z,90.70
2023-12-11T23:23:04.707Z,90.75
2023-12-11T23:26:33.598Z,90.77
2023-12-11T23:30:07.270Z,90.83
2023-12-11T23:33:27.204Z,90.85
2023-12-11T23:36:56.337Z,90.90
2023-12-11T23:40:24.980Z,90.93
2023-12-11T23:43:53.654Z,90.99
2023-12-11T23:47:22.399Z,91.03
2023-12-11T23:50:51.127Z,91.13
2023-12-11T23:54:19.850Z,91.16
2023-12-11T23:57:48.766Z,91.21
